Time,TemperatureF,DewpointF,PressureIn,WindDirection,WindDirectionDegrees,WindSpeedMPH,WindSpeedGustMPH,Humidity,HourlyPrecipIn,Conditions,Clouds,dailyrainin,SoftwareType,DateUTC
2013-01-29 00:06:00,38.5,37.0,30.34,NE,35,0.0,0.0,95,0.00,,,0.00,weatherlink.com 1.10,2013-01-29 05:06:00,
2013-01-29 00:21:00,38.3,37.0,30.34,NE,36,0.0,0.0,96,0.00,,,0.00,weatherlink.com 1.10,2013-01-29 05:21:00,
2013-01-29 00:36:00,37.9,37.0,30.33,NE,35,0.0,0.0,96,0.00,,,0.00,weatherlink.com 1.10,2013-01-29 05:36:00,
2013-01-29 00:51:00,37.4,36.0,30.33,NE,36,0.0,0.0,95,0.00,,,0.00,weatherlink.com 1.10,2013-01-29 05:51:00,
2013-01-29 01:06:00,37.1,36.0,30.32,NE,35,0.0,0.0,96,0.00,,,0.00,weatherlink.com 1.10,2013-01-29 06:06:00,
2013-01-29 01:21:00,36.7,36.0,30.32,NE,35,0.0,0.0,96,0.00,,,0.00,weatherlink.com 1.10,2013-01-29 06:21:00,
2013-01-29 01:36:00,36.6,36.0,30.32,NE,35,0.0,0.0,97,0.00,,,0.00,weatherlink.com 1.10,2013-01-29 06:36:00,
2013-01-29 01:51:00,36.3,36.0,30.32,NE,37,0.0,0.0,97,0.00,,,0.00,weatherlink.com 1.10,2013-01-29 06:51:00,
2013-01-29 02:06:00,35.9,35.0,30.32,NE,37,0.0,0.0,97,0.00,,,0.00,weatherlink.com 1.10,2013-01-29 07:06:00,
2013-01-29 02:21:00,35.8,35.0,30.32,NE,37,0.0,0.0,97,0.00,,,0.00,weatherlink.com 1.10,2013-01-29 07:21:00,
2013-01-29 02:36:00,35.6,35.0,30.32,NE,35,0.0,0.0,97,0.00,,,0.00,weatherlink.com 1.10,2013-01-29 07:36:00,
2013-01-29 02:51:00,35.4,35.0,30.32,NE,37,0.0,1.0,97,0.00,,,0.00,weatherlink.com 1.10,2013-01-29 07:51:00,
2013-01-29 03:06:00,35.3,35.0,30.31,NE,35,0.0,1.0,97,0.00,,,0.00,weatherlink.com 1.10,2013-01-29 08:06:00,
2013-01-29 03:21:00,35.1,34.0,30.31,NE,37,0.0,0.0,97,0.00,,,0.00,weatherlink.com 1.10,2013-01-29 08:21:00,
2013-01-29 03:36:00,34.9,34.0,30.31,NE,37,0.0,0.0,97,0.00,,,0.00,weatherlink.com 1.10,2013-01-29 08:36:00,
2013-01-29 03:51:00,34.7,34.0,30.31,NE,38,0.0,0.0,97,0.00,,,0.00,weatherlink.com 1.10,2013-01-29 08:51:00,
2013-01-29 04:06:00,34.4,34.0,30.31,NE,39,0.0,0.0,97,0.00,,,0.00,weatherlink.com 1.10,2013-01-29 09:06:00,
2013-01-29 04:21:00,34.6,34.0,30.31,NE,37,0.0,0.0,97,0.00,,,0.00,weatherlink.com 1.10,2013-01-29 09:21:00,
2013-01-29 04:36:00,34.2,34.0,30.31,NE,37,0.0,1.0,97,0.00,,,0.00,weatherlink.com 1.10,2013-01-29 09:36:00,
2013-01-29 04:51:00,34.0,33.0,30.31,NE,37,0.0,0.0,97,0.00,,,0.00,weatherlink.com 1.10,2013-01-29 09:51:00,
2013-01-29 05:06:00,34.3,34.0,30.30,NE,37,1.0,1.0,97,0.00,,,0.00,weatherlink.com 1.10,2013-01-29 10:06:00,
2013-01-29 05:21:00,34.4,34.0,30.30,NE,49,0.0,1.0,97,0.00,,,0.00,weatherlink.com 1.10,2013-01-29 10:21:00,
2013-01-29 05:36:00,34.7,34.0,30.29,NNW,346,1.0,2.0,97,0.00,,,0.00,weatherlink.com 1.10,2013-01-29 10:36:00,
2013-01-29 05:52:00,34.6,34.0,30.29,NNE,22,1.0,1.0,97,0.00,,,0.00,weatherlink.com 1.10,2013-01-29 10:52:00,
2013-01-29 06:06:00,34.9,34.0,30.29,North,351,0.0,1.0,97,0.00,,,0.00,weatherlink.com 1.10,2013-01-29 11:06:00,
2013-01-29 06:21:00,35.2,35.0,30.29,WNW,295,1.0,1.0,98,0.00,,,0.00,weatherlink.com 1.10,2013-01-29 11:21:00,
2013-01-29 06:36:00,35.5,35.0,30.29,NE,49,0.0,1.0,98,0.00,,,0.00,weatherlink.com 1.10,2013-01-29 11:36:00,
2013-01-29 06:52:00,36.2,36.0,30.29,North,352,0.0,1.0,98,0.00,,,0.00,weatherlink.com 1.10,2013-01-29 11:52:00,
2013-01-29 07:06:00,37.0,37.0,30.29,North,11,0.0,1.0,98,0.00,,,0.00,weatherlink.com 1.10,2013-01-29 12:06:00,
2013-01-29 07:22:00,38.2,38.0,30.30,North,11,0.0,0.0,98,0.00,,,0.00,weatherlink.com 1.10,2013-01-29 12:22:00,
2013-01-29 07:37:00,37.5,37.0,30.30,WNW,294,0.0,1.0,98,0.00,,,0.00,weatherlink.com 1.10,2013-01-29 12:37:00,
2013-01-29 07:51:00,37.9,37.0,30.30,North,6,0.0,1.0,98,0.00,,,0.00,weatherlink.com 1.10,2013-01-29 12:51:00,
2013-01-29 08:07:00,38.1,38.0,30.30,North,6,0.0,1.0,98,0.00,,,0.00,weatherlink.com 1.10,2013-01-29 13:07:00,
2013-01-29 08:21:00,39.5,39.0,30.29,NNE,28,0.0,0.0,98,0.00,,,0.00,weatherlink.com 1.10,2013-01-29 13:21:00,
2013-01-29 08:36:00,40.8,40.0,30.30,NNE,27,0.0,1.0,98,0.00,,,0.00,weatherlink.com 1.10,2013-01-29 13:36:00,
2013-01-29 08:51:00,44.0,44.0,30.30,NNE,27,0.0,0.0,98,0.00,,,0.00,weatherlink.com 1.10,2013-01-29 13:51:00,
2013-01-29 09:07:00,46.8,46.0,30.30,NE,44,0.0,1.0,95,0.00,,,0.00,weatherlink.com 1.10,2013-01-29 14:07:00,
2013-01-29 09:22:00,51.2,48.0,30.30,NNW,328,0.0,2.0,89,0.00,,,0.00,weatherlink.com 1.10,2013-01-29 14:22:00,
2013-01-29 09:37:00,55.7,50.0,30.30,NW,323,0.0,2.0,81,0.00,,,0.00,weatherlink.com 1.10,2013-01-29 14:37:00,
2013-01-29 09:52:00,58.8,50.0,30.29,WSW,239,3.0,7.0,72,0.00,,,0.00,weatherlink.com 1.10,2013-01-29 14:52:00,
2013-01-29 10:07:00,60.3,50.0,30.29,East,89,1.0,7.0,69,0.00,,,0.00,weatherlink.com 1.10,2013-01-29 15:07:00,
2013-01-29 10:22:00,61.4,50.0,30.29,WNW,294,2.0,6.0,67,0.00,,,0.00,weatherlink.com 1.10,2013-01-29 15:22:00,
2013-01-29 10:37:00,62.6,51.0,30.29,SW,215,1.0,4.0,67,0.00,,,0.00,weatherlink.com 1.10,2013-01-29 15:37:00,
2013-01-29 10:52:00,63.1,51.0,30.29,West,280,0.0,6.0,64,0.00,,,0.00,weatherlink.com 1.10,2013-01-29 15:52:00,
2013-01-29 11:07:00,63.3,51.0,30.29,West,263,2.0,5.0,65,0.00,,,0.00,weatherlink.com 1.10,2013-01-29 16:07:00,
2013-01-29 11:22:00,64.0,53.0,30.28,NW,312,4.0,7.0,67,0.00,,,0.00,weatherlink.com 1.10,2013-01-29 16:22:00,
2013-01-29 11:37:00,65.0,54.0,30.27,SW,214,3.0,7.0,68,0.00,,,0.00,weatherlink.com 1.10,2013-01-29 16:37:00,
2013-01-29 11:52:00,65.1,54.0,30.26,NW,306,1.0,10.0,67,0.00,,,0.00,weatherlink.com 1.10,2013-01-29 16:52:00,
2013-01-29 12:07:00,65.7,54.0,30.25,NW,309,4.0,7.0,67,0.00,,,0.00,weatherlink.com 1.10,2013-01-29 17:07:00,
2013-01-29 12:22:00,65.0,54.0,30.24,WNW,290,4.0,7.0,68,0.00,,,0.00,weatherlink.com 1.10,2013-01-29 17:22:00,
2013-01-29 12:37:00,65.9,54.0,30.23,WSW,249,2.0,11.0,66,0.00,,,0.00,weatherlink.com 1.10,2013-01-29 17:37:00,
2013-01-29 12:52:00,64.7,55.0,30.23,NW,308,2.0,9.0,71,0.00,,,0.00,weatherlink.com 1.10,2013-01-29 17:52:00,
2013-01-29 13:07:00,64.9,55.0,30.23,NW,320,4.0,11.0,71,0.00,,,0.00,weatherlink.com 1.10,2013-01-29 18:07:00,
2013-01-29 13:23:00,64.5,56.0,30.22,NW,310,2.0,14.0,73,0.00,,,0.00,weatherlink.com 1.10,2013-01-29 18:23:00,
2013-01-29 13:37:00,63.3,55.0,30.21,NW,304,5.0,14.0,75,0.00,,,0.00,weatherlink.com 1.10,2013-01-29 18:37:00,
2013-01-29 13:52:00,63.3,56.0,30.21,WSW,252,2.0,13.0,76,0.00,,,0.00,weatherlink.com 1.10,2013-01-29 18:52:00,
2013-01-29 14:09:00,62.8,56.0,30.21,West,280,4.0,15.0,78,0.00,,,0.00,weatherlink.com 1.10,2013-01-29 19:09:00,
2013-01-29 14:23:00,62.7,56.0,30.21,West,279,9.0,13.0,79,0.00,,,0.00,weatherlink.com 1.10,2013-01-29 19:23:00,
2013-01-29 14:38:00,62.2,56.0,30.21,NW,307,4.0,12.0,80,0.00,,,0.00,weatherlink.com 1.10,2013-01-29 19:38:00,
2013-01-29 14:53:00,62.5,56.0,30.20,NW,307,1.0,5.0,80,0.00,,,0.00,weatherlink.com 1.10,2013-01-29 19:53:00,
2013-01-29 15:08:00,62.2,56.0,30.20,NW,321,2.0,9.0,81,0.00,,,0.00,weatherlink.com 1.10,2013-01-29 20:08:00,
2013-01-29 15:23:00,61.6,56.0,30.20,WNW,294,2.0,5.0,82,0.00,,,0.00,weatherlink.com 1.10,2013-01-29 20:23:00,
2013-01-29 15:38:00,61.3,56.0,30.20,West,264,0.0,4.0,83,0.00,,,0.00,weatherlink.com 1.10,2013-01-29 20:38:00,
2013-01-29 15:53:00,61.1,56.0,30.20,West,277,3.0,9.0,83,0.00,,,0.00,weatherlink.com 1.10,2013-01-29 20:53:00,
2013-01-29 16:08:00,60.9,56.0,30.19,WNW,284,3.0,7.0,84,0.00,,,0.00,weatherlink.com 1.10,2013-01-29 21:08:00,
2013-01-29 16:23:00,60.7,56.0,30.19,West,259,4.0,7.0,85,0.00,,,0.00,weatherlink.com 1.10,2013-01-29 21:23:00,
2013-01-29 16:38:00,60.5,56.0,30.18,NW,313,3.0,6.0,86,0.00,,,0.00,weatherlink.com 1.10,2013-01-29 21:38:00,
2013-01-29 16:53:00,60.6,56.0,30.18,West,273,1.0,6.0,86,0.00,,,0.00,weatherlink.com 1.10,2013-01-29 21:53:00,
2013-01-29 17:08:00,60.4,56.0,30.18,NNW,333,2.0,8.0,86,0.00,,,0.00,weatherlink.com 1.10,2013-01-29 22:08:00,
2013-01-29 17:23:00,60.1,56.0,30.18,NW,309,2.0,5.0,87,0.00,,,0.00,weatherlink.com 1.10,2013-01-29 22:23:00,
2013-01-29 17:38:00,59.7,56.0,30.18,West,275,2.0,7.0,87,0.00,,,0.00,weatherlink.com 1.10,2013-01-29 22:38:00,
2013-01-29 17:53:00,59.8,56.0,30.18,WNW,284,1.0,4.0,87,0.00,,,0.00,weatherlink.com 1.10,2013-01-29 22:53:00,
2013-01-29 18:08:00,59.7,56.0,30.18,WNW,297,1.0,5.0,87,0.00,,,0.00,weatherlink.com 1.10,2013-01-29 23:08:00,
2013-01-29 18:23:00,59.6,56.0,30.18,WNW,299,3.0,5.0,87,0.00,,,0.00,weatherlink.com 1.10,2013-01-29 23:23:00,
2013-01-29 18:38:00,59.4,56.0,30.18,West,273,0.0,4.0,88,0.00,,,0.00,weatherlink.com 1.10,2013-01-29 23:38:00,
2013-01-29 18:53:00,59.2,56.0,30.18,NNW,333,1.0,3.0,88,0.00,,,0.00,weatherlink.com 1.10,2013-01-29 23:53:00,
2013-01-29 19:08:00,59.1,56.0,30.18,WNW,283,0.0,2.0,88,0.00,,,0.00,weatherlink.com 1.10,2013-01-30 00:08:00,
2013-01-29 19:23:00,58.8,55.0,30.17,WSW,245,1.0,2.0,88,0.00,,,0.00,weatherlink.com 1.10,2013-01-30 00:23:00,
2013-01-29 19:38:00,58.3,56.0,30.18,West,266,1.0,1.0,91,0.00,,,0.00,weatherlink.com 1.10,2013-01-30 00:38:00,
2013-01-29 19:53:00,57.9,55.0,30.17,WSW,250,0.0,1.0,91,0.00,,,0.00,weatherlink.com 1.10,2013-01-30 00:53:00,
2013-01-29 20:08:00,57.4,55.0,30.17,WNW,293,0.0,1.0,93,0.00,,,0.00,weatherlink.com 1.10,2013-01-30 01:08:00,
2013-01-29 20:23:00,57.0,55.0,30.17,WNW,293,0.0,1.0,93,0.00,,,0.00,weatherlink.com 1.10,2013-01-30 01:23:00,
2013-01-29 20:38:00,56.7,55.0,30.18,WNW,293,0.0,0.0,94,0.00,,,0.00,weatherlink.com 1.10,2013-01-30 01:38:00,
2013-01-29 20:53:00,56.5,55.0,30.18,WNW,293,0.0,0.0,95,0.00,,,0.00,weatherlink.com 1.10,2013-01-30 01:53:00,
2013-01-29 21:08:00,56.3,55.0,30.17,West,281,0.0,1.0,95,0.00,,,0.00,weatherlink.com 1.10,2013-01-30 02:08:00,
2013-01-29 21:23:00,56.2,55.0,30.16,SE,135,0.0,1.0,95,0.00,,,0.00,weatherlink.com 1.10,2013-01-30 02:23:00,
2013-01-29 21:38:00,56.1,55.0,30.15,SE,134,0.0,0.0,95,0.00,,,0.00,weatherlink.com 1.10,2013-01-30 02:38:00,
2013-01-29 21:53:00,55.9,55.0,30.13,WNW,283,1.0,2.0,96,0.00,,,0.00,weatherlink.com 1.10,2013-01-30 02:53:00,
2013-01-29 22:08:00,56.0,55.0,30.14,West,265,0.0,0.0,96,0.00,,,0.00,weatherlink.com 1.10,2013-01-30 03:08:00,
2013-01-29 22:23:00,55.9,55.0,30.12,West,266,0.0,0.0,96,0.01,,,0.01,weatherlink.com 1.10,2013-01-30 03:23:00,
2013-01-29 22:38:00,55.7,55.0,30.12,West,265,0.0,0.0,96,0.03,,,0.03,weatherlink.com 1.10,2013-01-30 03:38:00,
2013-01-29 22:53:00,55.7,55.0,30.12,West,265,0.0,0.0,97,0.05,,,0.05,weatherlink.com 1.10,2013-01-30 03:53:00,
2013-01-29 23:09:00,56.7,56.0,30.12,WNW,285,4.0,4.0,98,0.07,,,0.07,weatherlink.com 1.10,2013-01-30 04:09:00,
2013-01-29 23:23:00,57.8,57.0,30.11,NW,307,0.0,5.0,97,0.07,,,0.08,weatherlink.com 1.10,2013-01-30 04:23:00,
2013-01-29 23:38:00,59.2,58.0,30.11,NNW,333,6.0,11.0,97,0.08,,,0.11,weatherlink.com 1.10,2013-01-30 04:38:00,
2013-01-29 23:53:00,60.3,58.0,30.11,WSW,245,4.0,11.0,93,0.06,,,0.11,weatherlink.com 1.10,2013-01-30 04:53:00,